sensor_id;sensor_type;location;lat;lon;timestamp;pressure;altitude;pressure_sealevel;temperature;humidity
79678;BME280;69145;45.544;10.214;2023-06-14T00:01:43;99523.94;;;22.60;72.69
79678;BME280;69145;45.544;10.214;2023-06-14T00:04:11;99522.88;;;22.66;72.83
79678;BME280;69145;45.544;10.214;2023-06-14T00:06:38;99523.94;;;22.65;72.70
79678;BME280;69145;45.544;10.214;2023-06-14T00:09:04;99528.13;;;22.71;72.40
79678;BME280;69145;45.544;10.214;2023-06-14T00:11:30;99532.59;;;22.71;72.55
79678;BME280;69145;45.544;10.214;2023-06-14T00:13:56;99523.94;;;22.70;72.28
79678;BME280;69145;45.544;10.214;2023-06-14T00:16:21;99530.25;;;22.69;72.51
79678;BME280;69145;45.544;10.214;2023-06-14T00:18:48;99531.84;;;22.70;72.59
79678;BME280;69145;45.544;10.214;2023-06-14T00:21:13;99526.59;;;22.65;72.60
79678;BME280;69145;45.544;10.214;2023-06-14T00:23:39;99532.88;;;22.69;72.57
79678;BME280;69145;45.544;10.214;2023-06-14T00:26:05;99529.72;;;22.67;72.47
79678;BME280;69145;45.544;10.214;2023-06-14T00:28:30;99532.34;;;22.67;72.32
79678;BME280;69145;45.544;10.214;2023-06-14T00:30:55;99522.63;;;22.63;72.07
79678;BME280;69145;45.544;10.214;2023-06-14T00:33:21;99524.44;;;22.67;71.87
79678;BME280;69145;45.544;10.214;2023-06-14T00:35:46;99517.59;;;22.66;71.78
79678;BME280;69145;45.544;10.214;2023-06-14T00:38:12;99513.66;;;22.64;71.58
79678;BME280;69145;45.544;10.214;2023-06-14T00:40:37;99516.53;;;22.67;71.64
79678;BME280;69145;45.544;10.214;2023-06-14T00:43:03;99511.28;;;22.62;71.56
79678;BME280;69145;45.544;10.214;2023-06-14T00:45:29;99512.88;;;22.63;71.40
79678;BME280;69145;45.544;10.214;2023-06-14T00:47:56;99499.69;;;22.63;71.24
79678;BME280;69145;45.544;10.214;2023-06-14T00:50:22;99499.44;;;22.55;71.08
79678;BME280;69145;45.544;10.214;2023-06-14T00:52:48;99499.72;;;22.58;71.22
79678;BME280;69145;45.544;10.214;2023-06-14T00:55:14;99509.44;;;22.63;70.89
79678;BME280;69145;45.544;10.214;2023-06-14T00:57:39;99498.91;;;22.58;70.85
79678;BME280;69145;45.544;10.214;2023-06-14T01:00:06;99504.47;;;22.56;70.46
79678;BME280;69145;45.544;10.214;2023-06-14T01:02:38;99507.88;;;22.62;70.58
79678;BME280;69145;45.544;10.214;2023-06-14T01:05:04;99503.91;;;22.59;70.46
79678;BME280;69145;45.544;10.214;2023-06-14T01:07:51;99505.72;;;22.64;70.49
79678;BME280;69145;45.544;10.214;2023-06-14T01:13:12;99494.94;;;22.65;70.51
79678;BME280;69145;45.544;10.214;2023-06-14T01:15:41;99493.06;;;22.66;70.64
79678;BME280;69145;45.544;10.214;2023-06-14T01:18:08;99489.66;;;22.65;70.80
79678;BME280;69145;45.544;10.214;2023-06-14T01:20:33;99484.91;;;22.62;70.96
79678;BME280;69145;45.544;10.214;2023-06-14T01:23:03;99491.50;;;22.65;70.84
79678;BME280;69145;45.544;10.214;2023-06-14T01:25:28;99485.72;;;22.63;70.84
79678;BME280;69145;45.544;10.214;2023-06-14T01:28:02;99486.50;;;22.63;70.95
79678;BME280;69145;45.544;10.214;2023-06-14T01:30:30;99476.47;;;22.65;71.14
79678;BME280;69145;45.544;10.214;2023-06-14T01:32:56;99480.44;;;22.63;71.16
79678;BME280;69145;45.544;10.214;2023-06-14T01:35:22;99477.78;;;22.63;71.06
79678;BME280;69145;45.544;10.214;2023-06-14T01:37:49;99485.16;;;22.66;71.19
79678;BME280;69145;45.544;10.214;2023-06-14T01:40:15;99482.00;;;22.64;71.21
79678;BME280;69145;45.544;10.214;2023-06-14T01:42:41;99483.31;;;22.66;71.05
79678;BME280;69145;45.544;10.214;2023-06-14T01:45:08;99488.06;;;22.64;71.01
79678;BME280;69145;45.544;10.214;2023-06-14T01:47:35;99483.06;;;22.63;70.91
79678;BME280;69145;45.544;10.214;2023-06-14T01:50:02;99479.13;;;22.65;70.95
79678;BME280;69145;45.544;10.214;2023-06-14T01:52:28;99475.16;;;22.63;70.91
79678;BME280;69145;45.544;10.214;2023-06-14T01:54:53;99472.78;;;22.61;70.78
79678;BME280;69145;45.544;10.214;2023-06-14T01:57:19;99472.00;;;22.61;70.51
79678;BME280;69145;45.544;10.214;2023-06-14T01:59:45;99472.25;;;22.64;70.56
79678;BME280;69145;45.544;10.214;2023-06-14T02:02:14;99470.72;;;22.58;70.58
79678;BME280;69145;45.544;10.214;2023-06-14T02:04:39;99479.13;;;22.60;70.46
79678;BME280;69145;45.544;10.214;2023-06-14T02:07:05;99478.63;;;22.58;70.75
79678;BME280;69145;45.544;10.214;2023-06-14T02:09:30;99475.44;;;22.61;70.72
79678;BME280;69145;45.544;10.214;2023-06-14T02:11:55;99479.13;;;22.60;70.41
79678;BME280;69145;45.544;10.214;2023-06-14T02:14:21;99481.22;;;22.63;70.55
79678;BME280;69145;45.544;10.214;2023-06-14T02:16:46;99466.47;;;22.57;70.55
79678;BME280;69145;45.544;10.214;2023-06-14T02:19:15;99473.84;;;22.60;70.60
79678;BME280;69145;45.544;10.214;2023-06-14T02:21:41;99468.84;;;22.59;70.66
79678;BME280;69145;45.544;10.214;2023-06-14T02:24:07;99476.22;;;22.62;70.49
79678;BME280;69145;45.544;10.214;2023-06-14T02:26:32;99468.84;;;22.59;70.92
79678;BME280;69145;45.544;10.214;2023-06-14T02:28:58;99476.47;;;22.60;70.46
79678;BME280;69145;45.544;10.214;2023-06-14T02:31:23;99471.19;;;22.60;70.58
79678;BME280;69145;45.544;10.214;2023-06-14T02:33:48;99474.13;;;22.59;70.63
79678;BME280;69145;45.544;10.214;2023-06-14T02:36:14;99470.72;;;22.58;70.45
79678;BME280;69145;45.544;10.214;2023-06-14T02:38:39;99474.34;;;22.62;70.76
79678;BME280;69145;45.544;10.214;2023-06-14T02:41:04;99479.38;;;22.59;70.44
79678;BME280;69145;45.544;10.214;2023-06-14T02:43:31;99473.34;;;22.58;70.72
79678;BME280;69145;45.544;10.214;2023-06-14T02:45:56;99475.97;;;22.58;70.57
79678;BME280;69145;45.544;10.214;2023-06-14T02:48:22;99477.03;;;22.57;70.39
79678;BME280;69145;45.544;10.214;2023-06-14T02:50:47;99473.59;;;22.57;70.75
79678;BME280;69145;45.544;10.214;2023-06-14T02:53:12;99477.03;;;22.57;70.80
79678;BME280;69145;45.544;10.214;2023-06-14T02:55:37;99478.63;;;22.58;70.82
79678;BME280;69145;45.544;10.214;2023-06-14T02:58:05;99471.22;;;22.55;70.75
79678;BME280;69145;45.544;10.214;2023-06-14T03:00:30;99469.09;;;22.52;70.70
79678;BME280;69145;45.544;10.214;2023-06-14T03:02:56;99471.75;;;22.57;70.52
79678;BME280;69145;45.544;10.214;2023-06-14T03:05:21;99476.22;;;22.57;70.62
79678;BME280;69145;45.544;10.214;2023-06-14T03:07:47;99473.34;;;22.58;70.39
79678;BME280;69145;45.544;10.214;2023-06-14T03:10:13;99467.78;;;22.55;70.24
79678;BME280;69145;45.544;10.214;2023-06-14T03:12:38;99477.03;;;22.57;70.00
79678;BME280;69145;45.544;10.214;2023-06-14T03:15:04;99473.06;;;22.60;70.09
79678;BME280;69145;45.544;10.214;2023-06-14T03:17:30;99477.53;;;22.59;70.15
79678;BME280;69145;45.544;10.214;2023-06-14T03:19:59;99465.16;;;22.60;70.11
79678;BME280;69145;45.544;10.214;2023-06-14T03:22:25;99468.59;;;22.55;70.25
79678;BME280;69145;45.544;10.214;2023-06-14T03:24:51;99465.69;;;22.57;70.04
79678;BME280;69145;45.544;10.214;2023-06-14T03:27:17;99470.94;;;22.57;69.95
79678;BME280;69145;45.544;10.214;2023-06-14T03:29:43;99459.59;;;22.51;69.85
79678;BME280;69145;45.544;10.214;2023-06-14T03:32:09;99462.53;;;22.55;69.88
79678;BME280;69145;45.544;10.214;2023-06-14T03:34:34;99446.94;;;22.53;69.78
79678;BME280;69145;45.544;10.214;2023-06-14T03:37:00;99447.75;;;22.53;70.00
79678;BME280;69145;45.544;10.214;2023-06-14T03:39:26;99446.94;;;22.53;69.79
79678;BME280;69145;45.544;10.214;2023-06-14T03:41:51;99462.28;;;22.56;69.98
79678;BME280;69145;45.544;10.214;2023-06-14T03:44:18;99455.94;;;22.52;70.05
79678;BME280;69145;45.544;10.214;2023-06-14T03:46:45;99451.72;;;22.56;70.21
79678;BME280;69145;45.544;10.214;2023-06-14T03:49:11;99459.09;;;22.54;69.98
79678;BME280;69145;45.544;10.214;2023-06-14T03:51:36;99457.50;;;22.53;70.16
79678;BME280;69145;45.544;10.214;2023-06-14T03:54:02;99457.50;;;22.53;70.08
79678;BME280;69145;45.544;10.214;2023-06-14T03:56:27;99456.97;;;22.51;70.10
79678;BME280;69145;45.544;10.214;2023-06-14T03:58:53;99463.84;;;22.52;70.13
79678;BME280;69145;45.544;10.214;2023-06-14T04:01:18;99461.72;;;22.54;70.12
79678;BME280;69145;45.544;10.214;2023-06-14T04:03:43;99464.13;;;22.56;69.93
79678;BME280;69145;45.544;10.214;2023-06-14T04:06:09;99469.38;;;22.56;69.99
79678;BME280;69145;45.544;10.214;2023-06-14T04:08:34;99467.78;;;22.55;70.00
79678;BME280;69145;45.544;10.214;2023-06-14T04:11:00;99461.72;;;22.54;70.10
79678;BME280;69145;45.544;10.214;2023-06-14T04:13:26;99467.78;;;22.55;70.16
79678;BME280;69145;45.544;10.214;2023-06-14T04:15:51;99468.31;;;22.51;70.03
79678;BME280;69145;45.544;10.214;2023-06-14T04:18:17;99469.09;;;22.52;70.18
79678;BME280;69145;45.544;10.214;2023-06-14T04:20:43;99467.50;;;22.51;70.36
79678;BME280;69145;45.544;10.214;2023-06-14T04:23:16;99473.31;;;22.53;70.13
79678;BME280;69145;45.544;10.214;2023-06-14T04:25:43;99464.63;;;22.52;70.02
79678;BME280;69145;45.544;10.214;2023-06-14T04:28:11;99475.69;;;22.55;70.06
79678;BME280;69145;45.544;10.214;2023-06-14T04:30:37;99474.38;;;22.52;69.95
79678;BME280;69145;45.544;10.214;2023-06-14T04:33:04;99480.69;;;22.51;69.84
79678;BME280;69145;45.544;10.214;2023-06-14T04:35:31;99479.66;;;22.52;69.87
79678;BME280;69145;45.544;10.214;2023-06-14T04:38:00;99484.94;;;22.52;69.69
79678;BME280;69145;45.544;10.214;2023-06-14T04:40:27;99484.94;;;22.52;69.55
79678;BME280;69145;45.544;10.214;2023-06-14T04:42:52;99480.44;;;22.52;69.70
79678;BME280;69145;45.544;10.214;2023-06-14T04:45:17;99480.44;;;22.52;69.75
79678;BME280;69145;45.544;10.214;2023-06-14T04:47:43;99477.81;;;22.52;69.66
79678;BME280;69145;45.544;10.214;2023-06-14T04:50:09;99483.84;;;22.53;69.46
79678;BME280;69145;45.544;10.214;2023-06-14T04:52:36;99486.50;;;22.53;69.52
79678;BME280;69145;45.544;10.214;2023-06-14T04:55:02;99486.00;;;22.56;69.44
79678;BME280;69145;45.544;10.214;2023-06-14T04:57:27;99487.28;;;22.53;69.40
79678;BME280;69145;45.544;10.214;2023-06-14T04:59:54;99489.94;;;22.53;69.38
79678;BME280;69145;45.544;10.214;2023-06-14T05:02:23;99485.22;;;22.56;69.52
79678;BME280;69145;45.544;10.214;2023-06-14T05:04:49;99491.00;;;22.52;69.70
79678;BME280;69145;45.544;10.214;2023-06-14T05:07:15;99494.41;;;22.53;69.31
79678;BME280;69145;45.544;10.214;2023-06-14T05:09:40;99495.47;;;22.52;69.50
79678;BME280;69145;45.544;10.214;2023-06-14T05:12:06;99494.69;;;22.51;69.39
79678;BME280;69145;45.544;10.214;2023-06-14T05:14:35;99498.09;;;22.52;69.26
79678;BME280;69145;45.544;10.214;2023-06-14T05:17:01;99497.03;;;22.53;69.26
79678;BME280;69145;45.544;10.214;2023-06-14T05:19:27;99503.91;;;22.54;69.10
79678;BME280;69145;45.544;10.214;2023-06-14T05:21:53;99505.50;;;22.55;69.29
79678;BME280;69145;45.544;10.214;2023-06-14T05:24:19;99506.31;;;22.56;69.09
79678;BME280;69145;45.544;10.214;2023-06-14T05:26:45;99509.97;;;22.55;68.85
79678;BME280;69145;45.544;10.214;2023-06-14T05:29:10;99515.00;;;22.56;68.93
79678;BME280;69145;45.544;10.214;2023-06-14T05:31:36;99519.47;;;22.56;68.95
79678;BME280;69145;45.544;10.214;2023-06-14T05:34:01;99508.38;;;22.53;68.90
79678;BME280;69145;45.544;10.214;2023-06-14T05:36:27;99507.34;;;22.55;69.03
79678;BME280;69145;45.544;10.214;2023-06-14T05:38:53;99509.97;;;22.55;69.25
79678;BME280;69145;45.544;10.214;2023-06-14T05:41:27;99511.56;;;22.56;69.18
79678;BME280;69145;45.544;10.214;2023-06-14T05:43:53;99515.25;;;22.55;69.06
79678;BME280;69145;45.544;10.214;2023-06-14T05:46:19;99509.97;;;22.55;69.03
79678;BME280;69145;45.544;10.214;2023-06-14T05:48:48;99514.44;;;22.54;69.05
79678;BME280;69145;45.544;10.214;2023-06-14T05:51:14;99518.94;;;22.53;69.08
79678;BME280;69145;45.544;10.214;2023-06-14T05:53:39;99526.03;;;22.53;69.00
79678;BME280;69145;45.544;10.214;2023-06-14T05:56:05;99521.03;;;22.51;68.90
79678;BME280;69145;45.544;10.214;2023-06-14T05:58:30;99533.44;;;22.51;69.12
79678;BME280;69145;45.544;10.214;2023-06-14T06:00:56;99533.94;;;22.53;68.77
79678;BME280;69145;45.544;10.214;2023-06-14T06:03:22;99529.47;;;22.53;69.19
79678;BME280;69145;45.544;10.214;2023-06-14T06:05:48;99537.94;;;22.56;69.04
79678;BME280;69145;45.544;10.214;2023-06-14T06:08:13;99537.16;;;22.55;68.81
79678;BME280;69145;45.544;10.214;2023-06-14T06:10:38;99531.88;;;22.55;69.11
79678;BME280;69145;45.544;10.214;2023-06-14T06:13:04;99533.72;;;22.55;69.04
79678;BME280;69145;45.544;10.214;2023-06-14T06:15:29;99537.16;;;22.55;68.81
79678;BME280;69145;45.544;10.214;2023-06-14T06:17:55;99538.19;;;22.49;68.83
79678;BME280;69145;45.544;10.214;2023-06-14T06:20:20;99538.19;;;22.54;69.06
79678;BME280;69145;45.544;10.214;2023-06-14T06:22:46;99538.97;;;22.55;69.11
79678;BME280;69145;45.544;10.214;2023-06-14T06:25:11;99533.47;;;22.56;68.95
79678;BME280;69145;45.544;10.214;2023-06-14T06:27:37;99536.09;;;22.56;69.01
79678;BME280;69145;45.544;10.214;2023-06-14T06:30:03;99542.94;;;22.57;68.88
79678;BME280;69145;45.544;10.214;2023-06-14T06:32:29;99545.84;;;22.56;69.11
79678;BME280;69145;45.544;10.214;2023-06-14T06:34:54;99543.47;;;22.54;68.88
79678;BME280;69145;45.544;10.214;2023-06-14T06:37:20;99553.22;;;22.53;69.23
79678;BME280;69145;45.544;10.214;2023-06-14T06:39:45;99550.31;;;22.55;68.97
79678;BME280;69145;45.544;10.214;2023-06-14T06:42:12;99548.50;;;22.56;68.90
79678;BME280;69145;45.544;10.214;2023-06-14T06:44:37;99556.13;;;22.57;68.58
79678;BME280;69145;45.544;10.214;2023-06-14T06:47:02;99553.75;;;22.56;68.55
79678;BME280;69145;45.544;10.214;2023-06-14T06:49:28;99562.72;;;22.55;68.55
79678;BME280;69145;45.544;10.214;2023-06-14T06:52:04;99556.13;;;22.57;68.38
79678;BME280;69145;45.544;10.214;2023-06-14T06:54:30;99559.84;;;22.56;68.44
79678;BME280;69145;45.544;10.214;2023-06-14T06:56:56;99567.19;;;22.54;66.86
79678;BME280;69145;45.544;10.214;2023-06-14T06:59:22;99568.28;;;22.58;67.58
79678;BME280;69145;45.544;10.214;2023-06-14T07:01:47;99567.19;;;22.59;67.50
79678;BME280;69145;45.544;10.214;2023-06-14T07:04:13;99564.56;;;22.59;67.04
79678;BME280;69145;45.544;10.214;2023-06-14T07:06:38;99574.06;;;22.55;67.21
79678;BME280;69145;45.544;10.214;2023-06-14T07:09:03;99569.84;;;22.59;67.02
79678;BME280;69145;45.544;10.214;2023-06-14T07:11:31;99573.81;;;22.62;67.79
79678;BME280;69145;45.544;10.214;2023-06-14T07:13:57;99579.84;;;22.62;68.64
79678;BME280;69145;45.544;10.214;2023-06-14T07:16:22;99575.63;;;22.61;69.13
79678;BME280;69145;45.544;10.214;2023-06-14T07:18:48;99584.06;;;22.63;69.03
79678;BME280;69145;45.544;10.214;2023-06-14T07:21:13;99585.66;;;22.64;69.20
79678;BME280;69145;45.544;10.214;2023-06-14T07:23:39;99584.06;;;22.63;68.89
79678;BME280;69145;45.544;10.214;2023-06-14T07:26:04;99585.13;;;22.62;68.34
79678;BME280;69145;45.544;10.214;2023-06-14T07:28:30;99585.66;;;22.64;68.34
79678;BME280;69145;45.544;10.214;2023-06-14T07:30:55;99591.19;;;22.63;69.00
79678;BME280;69145;45.544;10.214;2023-06-14T07:33:20;99592.25;;;22.62;66.70
79678;BME280;69145;45.544;10.214;2023-06-14T07:35:46;99594.63;;;22.63;68.42
79678;BME280;69145;45.544;10.214;2023-06-14T07:38:13;99584.06;;;22.63;68.90
79678;BME280;69145;45.544;10.214;2023-06-14T07:40:38;99592.50;;;22.65;68.94
79678;BME280;69145;45.544;10.214;2023-06-14T07:43:03;99587.25;;;22.65;68.50
79678;BME280;69145;45.544;10.214;2023-06-14T07:45:29;99589.88;;;22.65;69.01
79678;BME280;69145;45.544;10.214;2023-06-14T07:47:54;99587.47;;;22.64;68.94
79678;BME280;69145;45.544;10.214;2023-06-14T07:50:20;99589.88;;;22.65;69.38
79678;BME280;69145;45.544;10.214;2023-06-14T07:52:45;99589.88;;;22.65;69.27
79678;BME280;69145;45.544;10.214;2023-06-14T07:55:12;99589.06;;;22.65;69.78
79678;BME280;69145;45.544;10.214;2023-06-14T07:57:37;99586.72;;;22.63;69.28
79678;BME280;69145;45.544;10.214;2023-06-14T08:00:03;99592.75;;;22.64;69.70
79678;BME280;69145;45.544;10.214;2023-06-14T08:02:31;99597.78;;;22.65;69.62
79678;BME280;69145;45.544;10.214;2023-06-14T08:04:57;99590.66;;;22.66;69.75
79678;BME280;69145;45.544;10.214;2023-06-14T08:07:23;99589.59;;;22.67;69.46
79678;BME280;69145;45.544;10.214;2023-06-14T08:09:49;99589.59;;;22.67;69.40
79678;BME280;69145;45.544;10.214;2023-06-14T08:12:14;99591.44;;;22.66;69.70
79678;BME280;69145;45.544;10.214;2023-06-14T08:14:40;99587.25;;;22.65;69.70
79678;BME280;69145;45.544;10.214;2023-06-14T08:17:05;99595.16;;;22.65;69.54
79678;BME280;69145;45.544;10.214;2023-06-14T08:19:30;99595.16;;;22.65;69.70
79678;BME280;69145;45.544;10.214;2023-06-14T08:21:56;99604.63;;;22.66;69.87
79678;BME280;69145;45.544;10.214;2023-06-14T08:24:22;99600.91;;;22.67;69.84
79678;BME280;69145;45.544;10.214;2023-06-14T08:26:54;99597.50;;;22.67;69.97
79678;BME280;69145;45.544;10.214;2023-06-14T08:29:21;99600.91;;;22.67;69.99
79678;BME280;69145;45.544;10.214;2023-06-14T08:31:47;99598.28;;;22.67;69.87
79678;BME280;69145;45.544;10.214;2023-06-14T08:34:12;99596.72;;;22.66;69.92
79678;BME280;69145;45.544;10.214;2023-06-14T08:36:37;99602.78;;;22.67;69.83
79678;BME280;69145;45.544;10.214;2023-06-14T08:39:03;99605.16;;;22.68;69.79
79678;BME280;69145;45.544;10.214;2023-06-14T08:41:29;99605.44;;;22.67;69.81
79678;BME280;69145;45.544;10.214;2023-06-14T08:43:55;99605.16;;;22.68;69.80
79678;BME280;69145;45.544;10.214;2023-06-14T08:46:22;99613.06;;;22.68;69.93
79678;BME280;69145;45.544;10.214;2023-06-14T08:48:51;99611.22;;;22.69;70.02
79678;BME280;69145;45.544;10.214;2023-06-14T08:51:18;99609.91;;;22.66;70.02
79678;BME280;69145;45.544;10.214;2023-06-14T08:53:44;99607.78;;;22.68;70.03
79678;BME280;69145;45.544;10.214;2023-06-14T08:56:10;99607.00;;;22.68;69.86
79678;BME280;69145;45.544;10.214;2023-06-14T08:58:41;99614.09;;;22.67;70.02
79678;BME280;69145;45.544;10.214;2023-06-14T09:01:10;99616.75;;;22.67;70.15
79678;BME280;69145;45.544;10.214;2023-06-14T09:03:40;99613.34;;;22.67;70.24
79678;BME280;69145;45.544;10.214;2023-06-14T09:06:07;99614.91;;;22.68;70.07
79678;BME280;69145;45.544;10.214;2023-06-14T09:08:34;99613.06;;;22.68;70.16
79678;BME280;69145;45.544;10.214;2023-06-14T09:11:01;99623.63;;;22.68;70.02
79678;BME280;69145;45.544;10.214;2023-06-14T09:13:27;99622.81;;;22.68;70.04
79678;BME280;69145;45.544;10.214;2023-06-14T09:15:52;99631.53;;;22.68;70.23
79678;BME280;69145;45.544;10.214;2023-06-14T09:18:18;99626.25;;;22.68;70.17
79678;BME280;69145;45.544;10.214;2023-06-14T09:20:45;99630.72;;;22.68;70.07
79678;BME280;69145;45.544;10.214;2023-06-14T09:23:12;99625.47;;;22.68;70.30
79678;BME280;69145;45.544;10.214;2023-06-14T09:25:45;99626.25;;;22.68;70.43
79678;BME280;69145;45.544;10.214;2023-06-14T09:28:10;99623.63;;;22.68;70.33
79678;BME280;69145;45.544;10.214;2023-06-14T09:30:39;99627.06;;;22.69;70.36
79678;BME280;69145;45.544;10.214;2023-06-14T09:33:04;99634.16;;;22.68;70.33
79678;BME280;69145;45.544;10.214;2023-06-14T09:35:33;99626.25;;;22.68;70.22
79678;BME280;69145;45.544;10.214;2023-06-14T09:37:58;99631.53;;;22.68;70.10
79678;BME280;69145;45.544;10.214;2023-06-14T09:40:24;99630.72;;;22.68;70.39
79678;BME280;69145;45.544;10.214;2023-06-14T09:42:51;99633.38;;;22.68;70.30
79678;BME280;69145;45.544;10.214;2023-06-14T09:45:17;99639.44;;;22.68;70.21
79678;BME280;69145;45.544;10.214;2023-06-14T09:47:48;99632.31;;;22.69;70.16
79678;BME280;69145;45.544;10.214;2023-06-14T09:50:14;99637.59;;;22.69;70.15
79678;BME280;69145;45.544;10.214;2023-06-14T09:52:41;99641.00;;;22.69;70.29
79678;BME280;69145;45.544;10.214;2023-06-14T09:55:12;99636.81;;;22.68;70.25
79678;BME280;69145;45.544;10.214;2023-06-14T09:57:41;99636.00;;;22.68;70.20
79678;BME280;69145;45.544;10.214;2023-06-14T10:00:08;99636.00;;;22.68;70.43
79678;BME280;69145;45.544;10.214;2023-06-14T10:02:38;99634.16;;;22.68;70.48
79678;BME280;69145;45.544;10.214;2023-06-14T10:05:05;99635.72;;;22.69;70.17
79678;BME280;69145;45.544;10.214;2023-06-14T10:10:18;99641.00;;;22.69;70.62
79678;BME280;69145;45.544;10.214;2023-06-14T10:12:44;99640.47;;;22.67;70.48
79678;BME280;69145;45.544;10.214;2023-06-14T10:15:13;99630.47;;;22.69;70.13
79678;BME280;69145;45.544;10.214;2023-06-14T10:17:48;99635.72;;;22.69;70.41
79678;BME280;69145;45.544;10.214;2023-06-14T10:20:33;99626.25;;;22.68;70.31
79678;BME280;69145;45.544;10.214;2023-06-14T10:23:08;99626.25;;;22.68;70.35
79678;BME280;69145;45.544;10.214;2023-06-14T10:25:37;99619.13;;;22.69;70.33
79678;BME280;69145;45.544;10.214;2023-06-14T10:31:07;99623.34;;;22.70;70.47
79678;BME280;69145;45.544;10.214;2023-06-14T10:33:39;99620.97;;;22.68;70.61
79678;BME280;69145;45.544;10.214;2023-06-14T10:38:58;99618.34;;;22.68;70.42
79678;BME280;69145;45.544;10.214;2023-06-14T10:41:29;99619.91;;;22.69;70.46
79678;BME280;69145;45.544;10.214;2023-06-14T10:47:21;99614.91;;;22.68;70.63
79678;BME280;69145;45.544;10.214;2023-06-14T10:49:43;99616.50;;;22.69;70.40
79678;BME280;69145;45.544;10.214;2023-06-14T10:52:13;99611.47;;;22.67;70.41
79678;BME280;69145;45.544;10.214;2023-06-14T10:55:08;99610.44;;;22.68;70.29
79678;BME280;69145;45.544;10.214;2023-06-14T10:57:40;99607.28;;;22.66;70.44
79678;BME280;69145;45.544;10.214;2023-06-14T11:00:06;99610.44;;;22.68;70.34
79678;BME280;69145;45.544;10.214;2023-06-14T11:10:44;99593.00;;;22.67;70.20
79678;BME280;69145;45.544;10.214;2023-06-14T11:13:13;99593.81;;;22.68;70.25
79678;BME280;69145;45.544;10.214;2023-06-14T11:15:44;99591.97;;;22.68;70.34
79678;BME280;69145;45.544;10.214;2023-06-14T11:18:11;99594.59;;;22.68;70.12
79678;BME280;69145;45.544;10.214;2023-06-14T11:20:39;99596.44;;;22.68;69.80
79678;BME280;69145;45.544;10.214;2023-06-14T11:23:05;99589.34;;;22.68;69.81
79678;BME280;69145;45.544;10.214;2023-06-14T11:25:31;99579.59;;;22.69;68.77
79678;BME280;69145;45.544;10.214;2023-06-14T11:27:57;99580.34;;;22.69;69.66
79678;BME280;69145;45.544;10.214;2023-06-14T11:30:23;99575.06;;;22.69;69.73
79678;BME280;69145;45.544;10.214;2023-06-14T11:32:51;99591.69;;;22.70;69.74
79678;BME280;69145;45.544;10.214;2023-06-14T11:35:17;99578.78;;;22.68;69.11
79678;BME280;69145;45.544;10.214;2023-06-14T11:37:44;99569.81;;;22.69;68.39
79678;BME280;69145;45.544;10.214;2023-06-14T11:40:10;99569.81;;;22.69;68.47
79678;BME280;69145;45.544;10.214;2023-06-14T11:42:37;99574.31;;;22.69;68.60
79678;BME280;69145;45.544;10.214;2023-06-14T11:45:04;99575.06;;;22.69;68.91
79678;BME280;69145;45.544;10.214;2023-06-14T11:47:34;99566.41;;;22.69;68.79
79678;BME280;69145;45.544;10.214;2023-06-14T11:50:01;99561.13;;;22.69;68.53
79678;BME280;69145;45.544;10.214;2023-06-14T11:52:26;99551.63;;;22.68;67.51
79678;BME280;69145;45.544;10.214;2023-06-14T11:54:53;99556.63;;;22.69;67.60
79678;BME280;69145;45.544;10.214;2023-06-14T11:57:18;99554.25;;;22.68;67.40
79678;BME280;69145;45.544;10.214;2023-06-14T11:59:45;99557.69;;;22.68;67.19
79678;BME280;69145;45.544;10.214;2023-06-14T12:02:17;99560.06;;;22.70;66.88
79678;BME280;69145;45.544;10.214;2023-06-14T12:04:46;99555.84;;;22.69;66.76
79678;BME280;69145;45.544;10.214;2023-06-14T12:07:13;99555.03;;;22.68;66.50
79678;BME280;69145;45.544;10.214;2023-06-14T12:12:35;99529.22;;;22.65;65.69
79678;BME280;69145;45.544;10.214;2023-06-14T12:15:05;99547.41;;;22.67;65.59
79678;BME280;69145;45.544;10.214;2023-06-14T12:17:33;99538.69;;;22.66;66.03
79678;BME280;69145;45.544;10.214;2023-06-14T12:20:05;99535.00;;;22.67;65.87
79678;BME280;69145;45.544;10.214;2023-06-14T12:22:33;99526.31;;;22.67;65.54
79678;BME280;69145;45.544;10.214;2023-06-14T12:24:59;99521.81;;;22.67;65.30
79678;BME280;69145;45.544;10.214;2023-06-14T12:27:25;99528.94;;;22.67;65.72
79678;BME280;69145;45.544;10.214;2023-06-14T12:30:03;99519.16;;;22.67;65.44
79678;BME280;69145;45.544;10.214;2023-06-14T12:32:30;99527.88;;;22.68;65.26
79678;BME280;69145;45.544;10.214;2023-06-14T12:34:55;99524.44;;;22.67;64.95
79678;BME280;69145;45.544;10.214;2023-06-14T12:37:21;99521.31;;;22.65;65.62
79678;BME280;69145;45.544;10.214;2023-06-14T12:39:46;99528.69;;;22.68;63.93
79678;BME280;69145;45.544;10.214;2023-06-14T12:42:12;99524.44;;;22.67;64.43
79678;BME280;69145;45.544;10.214;2023-06-14T12:44:39;99524.19;;;22.69;65.03
79678;BME280;69145;45.544;10.214;2023-06-14T12:47:09;99517.06;;;22.69;64.62
79678;BME280;69145;45.544;10.214;2023-06-14T12:49:34;99517.06;;;22.69;64.29
79678;BME280;69145;45.544;10.214;2023-06-14T12:51:59;99523.13;;;22.70;64.29
79678;BME280;69145;45.544;10.214;2023-06-14T12:54:25;99520.50;;;22.70;64.89
79678;BME280;69145;45.544;10.214;2023-06-14T12:56:53;99516.53;;;22.67;64.36
79678;BME280;69145;45.544;10.214;2023-06-14T12:59:20;99520.50;;;22.70;64.14
79678;BME280;69145;45.544;10.214;2023-06-14T13:01:45;99503.09;;;22.69;64.30
79678;BME280;69145;45.544;10.214;2023-06-14T13:04:12;99513.66;;;22.69;63.78
79678;BME280;69145;45.544;10.214;2023-06-14T13:06:38;99516.28;;;22.69;63.98
79678;BME280;69145;45.544;10.214;2023-06-14T13:09:03;99521.28;;;22.70;64.76
79678;BME280;69145;45.544;10.214;2023-06-14T13:11:29;99521.28;;;22.70;64.46
79678;BME280;69145;45.544;10.214;2023-06-14T13:13:55;99516.00;;;22.70;64.68